createdAt,value
2019-03-16T00:00:32.584Z,0
2019-03-16T00:05:03.450Z,0
2019-03-16T00:08:46.274Z,0
2019-03-16T00:09:28.882Z,0
2019-03-16T00:10:13.348Z,0
2019-03-16T00:10:55.898Z,0
2019-03-16T00:11:39.462Z,0
2019-03-16T00:12:30.531Z,0
2019-03-16T00:13:11.002Z,0
2019-03-16T00:13:52.470Z,0
2019-03-16T00:14:32.834Z,0
2019-03-16T00:15:13.238Z,0
2019-03-16T00:15:53.541Z,0
2019-03-16T00:16:34.448Z,0
2019-03-16T00:17:22.988Z,0
2019-03-16T00:17:56.953Z,0
2019-03-16T00:18:37.417Z,0
2019-03-16T00:19:19.527Z,0
2019-03-16T00:20:04.425Z,0
2019-03-16T00:20:45.130Z,0
2019-03-16T00:21:26.482Z,0
2019-03-16T00:22:06.962Z,0
2019-03-16T00:22:48.907Z,0
2019-03-16T00:23:33.913Z,0
2019-03-16T00:24:15.248Z,0
2019-03-16T00:24:55.556Z,0
2019-03-16T00:25:37.658Z,0
2019-03-16T00:26:18.171Z,0
2019-03-16T00:26:58.472Z,0
2019-03-16T00:27:38.901Z,0
2019-03-16T00:28:20.042Z,0
2019-03-16T00:29:00.358Z,0
2019-03-16T00:29:41.089Z,0
2019-03-16T00:30:21.557Z,0
2019-03-16T00:31:01.849Z,0
2019-03-16T00:31:42.283Z,0
2019-03-16T00:32:23.746Z,0
2019-03-16T00:33:04.139Z,0
2019-03-16T00:33:44.466Z,0
2019-03-16T00:34:26.546Z,0
2019-03-16T00:35:07.889Z,0
2019-03-16T00:35:48.338Z,0
2019-03-16T00:36:28.819Z,0
2019-03-16T00:37:09.250Z,0
2019-03-16T00:37:49.768Z,0
2019-03-16T00:38:30.185Z,0
2019-03-16T00:39:11.259Z,0
2019-03-16T00:39:51.587Z,0
2019-03-16T00:40:50.543Z,0
2019-03-16T00:41:31.284Z,0
2019-03-16T00:42:14.535Z,0
2019-03-16T00:42:56.381Z,0
2019-03-16T00:43:36.885Z,0
2019-03-16T00:44:17.210Z,0
2019-03-16T00:44:59.590Z,0
2019-03-16T00:45:42.840Z,0
2019-03-16T00:46:27.003Z,0
2019-03-16T00:47:09.421Z,0
2019-03-16T00:47:50.404Z,0
2019-03-16T00:48:40.543Z,0
2019-03-16T00:49:21.823Z,0
2019-03-16T00:51:53.303Z,0
2019-03-16T00:52:38.056Z,0
2019-03-16T00:53:18.434Z,0
2019-03-16T00:53:58.806Z,0
2019-03-16T00:54:41.503Z,0
2019-03-16T00:55:21.992Z,0
2019-03-16T00:56:02.290Z,0
2019-03-16T00:56:42.757Z,0
2019-03-16T00:57:24.477Z,0
2019-03-16T00:58:07.102Z,0
2019-03-16T00:58:51.059Z,0
2019-03-16T00:59:33.257Z,0
2019-03-16T01:00:14.554Z,0
2019-03-16T01:00:54.866Z,0
2019-03-16T01:01:35.304Z,0
2019-03-16T01:02:26.361Z,0
2019-03-16T01:02:57.339Z,0
2019-03-16T01:03:37.876Z,0
2019-03-16T01:04:19.621Z,0
2019-03-16T01:05:00.522Z,0
2019-03-16T01:05:42.420Z,0
2019-03-16T01:06:22.787Z,0
2019-03-16T01:07:03.681Z,0
2019-03-16T01:07:43.959Z,0
2019-03-16T01:11:54.599Z,0
2019-03-16T01:12:37.304Z,0
2019-03-16T01:20:13.571Z,0
2019-03-16T01:21:06.025Z,0
2019-03-16T01:21:59.086Z,0
2019-03-16T01:22:39.832Z,0
2019-03-16T01:23:23.209Z,0
2019-03-16T01:24:21.834Z,0
2019-03-16T01:25:02.370Z,0
2019-03-16T01:25:43.646Z,0
2019-03-16T01:26:25.827Z,0
2019-03-16T01:27:06.504Z,0
2019-03-16T01:27:48.236Z,0
2019-03-16T01:28:30.668Z,0
2019-03-16T01:29:14.718Z,0
2019-03-16T01:29:55.830Z,0
2019-03-16T01:30:38.932Z,0
2019-03-16T01:31:19.832Z,0
2019-03-16T01:32:00.407Z,0
2019-03-16T01:32:42.244Z,0
2019-03-16T01:33:24.807Z,0
2019-03-16T01:37:12.008Z,0
2019-03-16T01:37:49.505Z,0
2019-03-16T01:38:30.763Z,0
2019-03-16T01:39:11.851Z,0
2019-03-16T01:39:52.712Z,0
2019-03-16T01:40:32.556Z,0
2019-03-16T01:46:34.111Z,0
2019-03-16T01:47:17.974Z,0
2019-03-16T01:47:58.718Z,0
2019-03-16T01:48:39.890Z,0
2019-03-16T01:49:22.954Z,0
2019-03-16T01:50:03.022Z,0
2019-03-16T01:50:43.919Z,0
2019-03-16T01:51:24.809Z,0
2019-03-16T01:52:07.078Z,0
2019-03-16T01:57:38.373Z,0
2019-03-16T02:01:31.812Z,0
2019-03-16T02:03:38.401Z,0
2019-03-16T02:04:28.173Z,0
2019-03-16T02:05:09.900Z,0
2019-03-16T02:05:50.957Z,0
2019-03-16T02:06:33.370Z,0
2019-03-16T02:07:13.470Z,0
2019-03-16T02:07:54.137Z,0
2019-03-16T02:08:34.793Z,0
2019-03-16T02:09:14.943Z,0
2019-03-16T02:18:35.783Z,0
2019-03-16T02:24:52.719Z,0
2019-03-16T02:33:39.005Z,0
2019-03-16T02:36:31.799Z,0
2019-03-16T02:40:15.769Z,0
2019-03-16T02:41:04.856Z,0
2019-03-16T02:50:49.289Z,0
2019-03-16T02:51:32.126Z,0
2019-03-16T02:52:12.981Z,0
2019-03-16T02:52:58.818Z,0
2019-03-16T02:53:41.153Z,0
2019-03-16T02:54:21.551Z,0
2019-03-16T02:55:03.573Z,0
2019-03-16T02:55:44.053Z,0
2019-03-16T02:56:24.710Z,0
2019-03-16T02:57:05.060Z,0
2019-03-16T02:57:45.594Z,0
2019-03-16T02:58:25.850Z,0
2019-03-16T02:59:06.604Z,0
2019-03-16T02:59:47.040Z,0
2019-03-16T03:00:27.736Z,0
2019-03-16T03:01:08.277Z,0
2019-03-16T03:01:49.323Z,0
2019-03-16T03:02:29.147Z,0
2019-03-16T03:03:09.401Z,0
2019-03-16T03:03:50.081Z,0
2019-03-16T03:04:30.509Z,0
2019-03-16T03:05:10.854Z,0
2019-03-16T03:05:51.272Z,0
2019-03-16T03:06:31.660Z,0
2019-03-16T03:07:12.792Z,0
2019-03-16T03:07:53.147Z,0
2019-03-16T03:08:33.578Z,0
2019-03-16T03:09:13.885Z,0
2019-03-16T03:09:54.277Z,0
2019-03-16T03:10:34.649Z,0
2019-03-16T03:11:15.031Z,0
2019-03-16T03:11:55.528Z,0
2019-03-16T03:12:35.902Z,0
2019-03-16T03:13:16.255Z,0
2019-03-16T03:13:56.671Z,0
2019-03-16T03:14:37.185Z,0
2019-03-16T03:15:17.647Z,0
2019-03-16T03:15:57.982Z,0
2019-03-16T03:16:38.567Z,0
2019-03-16T03:17:18.974Z,0
2019-03-16T03:17:59.406Z,0
2019-03-16T03:18:39.779Z,0
2019-03-16T03:19:21.318Z,0
2019-03-16T03:20:01.485Z,0
2019-03-16T03:20:44.063Z,0
2019-03-16T03:21:25.214Z,0
2019-03-16T03:22:06.178Z,0
2019-03-16T03:22:46.532Z,0
2019-03-16T03:23:26.927Z,0
2019-03-16T03:24:07.430Z,0
2019-03-16T03:24:50.334Z,0
2019-03-16T03:25:30.725Z,0
2019-03-16T03:26:11.372Z,0
2019-03-16T03:26:51.696Z,0
2019-03-16T03:27:36.123Z,0
2019-03-16T03:28:16.530Z,0
2019-03-16T03:29:00.985Z,0
2019-03-16T03:29:42.482Z,0
2019-03-16T03:30:23.050Z,0
2019-03-16T03:31:03.174Z,0
2019-03-16T03:31:43.906Z,0
2019-03-16T03:32:24.316Z,0
2019-03-16T03:33:04.778Z,0
2019-03-16T03:33:59.571Z,0
2019-03-16T03:34:27.176Z,0
2019-03-16T03:35:07.662Z,0
2019-03-16T03:35:48.418Z,0
2019-03-16T03:36:30.931Z,0
2019-03-16T03:37:12.316Z,0
2019-03-16T03:37:52.341Z,0
2019-03-16T03:38:33.682Z,0
2019-03-16T03:39:20.543Z,0
2019-03-16T03:40:00.916Z,0
2019-03-16T03:40:41.296Z,0
2019-03-16T03:41:21.953Z,0
2019-03-16T03:42:02.405Z,0
2019-03-16T03:42:42.749Z,0
2019-03-16T03:43:23.133Z,0
2019-03-16T03:44:03.668Z,0
2019-03-16T03:44:44.151Z,0
2019-03-16T03:45:24.493Z,0
2019-03-16T03:46:05.414Z,0
2019-03-16T03:46:45.818Z,0
2019-03-16T03:47:27.902Z,0
2019-03-16T03:48:08.006Z,0
2019-03-16T03:48:48.330Z,0
2019-03-16T03:49:28.695Z,0
2019-03-16T03:50:09.099Z,0
2019-03-16T03:50:49.445Z,0
2019-03-16T03:51:30.222Z,0
2019-03-16T03:52:10.592Z,0
2019-03-16T03:52:51.191Z,0
2019-03-16T03:53:31.527Z,0
2019-03-16T03:54:11.906Z,0
2019-03-16T03:54:52.364Z,0
2019-03-16T03:55:32.868Z,0
2019-03-16T03:56:13.195Z,0
2019-03-16T03:56:53.598Z,0
2019-03-16T03:57:34.031Z,0
2019-03-16T03:58:14.311Z,0
2019-03-16T03:58:54.794Z,0
2019-03-16T03:59:35.169Z,0
2019-03-16T04:00:15.540Z,0
2019-03-16T04:00:56.340Z,0
2019-03-16T04:01:36.625Z,0
2019-03-16T04:02:17.042Z,0
2019-03-16T04:02:57.406Z,0
2019-03-16T04:03:37.758Z,0
2019-03-16T04:04:18.222Z,0
2019-03-16T04:04:58.705Z,0
2019-03-16T04:05:39.088Z,0
2019-03-16T04:06:20.519Z,0
2019-03-16T04:07:01.439Z,0
2019-03-16T04:07:41.760Z,0
2019-03-16T04:08:22.076Z,0
2019-03-16T04:09:02.579Z,0
2019-03-16T04:09:43.028Z,0
2019-03-16T04:10:23.316Z,0
2019-03-16T04:11:03.901Z,0
2019-03-16T04:11:44.521Z,0
2019-03-16T04:12:24.856Z,0
2019-03-16T04:13:05.372Z,0
2019-03-16T04:13:45.820Z,0
2019-03-16T04:14:26.955Z,0
2019-03-16T04:15:07.308Z,0
2019-03-16T04:15:48.796Z,0
2019-03-16T04:16:29.209Z,0
2019-03-16T04:17:11.153Z,0
2019-03-16T04:17:53.062Z,0
2019-03-16T04:23:28.200Z,0
2019-03-16T05:07:10.255Z,0
2019-03-16T05:07:51.906Z,0
2019-03-16T05:08:33.340Z,0
2019-03-16T05:09:15.673Z,0
2019-03-16T05:16:49.836Z,0
2019-03-16T05:17:30.272Z,0
2019-03-16T05:18:10.718Z,0
2019-03-16T05:18:51.054Z,0
2019-03-16T05:19:31.426Z,0
2019-03-16T05:20:11.825Z,0
2019-03-16T05:20:52.172Z,0
2019-03-16T05:21:32.589Z,0
2019-03-16T05:22:12.910Z,0
2019-03-16T05:22:53.412Z,0
2019-03-16T05:23:33.747Z,0
2019-03-16T05:24:14.152Z,0
2019-03-16T05:24:54.510Z,0
2019-03-16T05:25:34.948Z,0
2019-03-16T05:26:15.302Z,0
2019-03-16T05:26:55.720Z,0
2019-03-16T05:27:35.991Z,0
2019-03-16T05:28:16.406Z,0
2019-03-16T05:28:56.814Z,0
2019-03-16T05:29:37.203Z,0
2019-03-16T05:30:17.640Z,0
2019-03-16T05:30:57.985Z,0
2019-03-16T05:31:38.337Z,0
2019-03-16T05:32:18.790Z,0
2019-03-16T05:32:59.107Z,0
2019-03-16T05:33:39.535Z,0
2019-03-16T05:34:19.987Z,0
2019-03-16T05:35:00.367Z,0
2019-03-16T05:35:40.691Z,0
2019-03-16T05:36:21.134Z,0
2019-03-16T05:37:01.535Z,0
2019-03-16T05:37:41.954Z,0
2019-03-16T05:38:22.344Z,0
2019-03-16T05:39:02.734Z,0
2019-03-16T05:39:43.516Z,0
2019-03-16T05:40:24.264Z,0
2019-03-16T05:41:04.699Z,4
2019-03-16T05:41:45.089Z,4
2019-03-16T05:42:25.412Z,4
2019-03-16T05:43:05.792Z,4
2019-03-16T05:43:46.167Z,4
2019-03-16T05:44:26.600Z,4
2019-03-16T05:45:07.005Z,0
2019-03-16T05:45:47.366Z,4
2019-03-16T05:46:27.769Z,4
2019-03-16T05:47:08.143Z,4
2019-03-16T05:47:48.533Z,4
2019-03-16T05:48:28.893Z,4
2019-03-16T05:49:09.299Z,4
2019-03-16T05:49:49.659Z,8
2019-03-16T05:50:30.064Z,4
2019-03-16T05:51:10.474Z,4
2019-03-16T05:51:50.860Z,8
2019-03-16T05:52:31.143Z,8
2019-03-16T05:53:11.560Z,8
2019-03-16T05:53:51.919Z,4
2019-03-16T05:54:32.343Z,8
2019-03-16T05:55:12.753Z,8
2019-03-16T05:55:53.126Z,8
2019-03-16T05:56:33.473Z,8
2019-03-16T05:57:13.974Z,8
2019-03-16T05:57:54.359Z,8
2019-03-16T05:58:34.794Z,8
2019-03-16T05:59:15.150Z,8
2019-03-16T05:59:55.532Z,12
2019-03-16T06:00:36.488Z,12
2019-03-16T06:01:16.864Z,12
2019-03-16T06:01:57.214Z,16
2019-03-16T06:02:37.600Z,12
2019-03-16T06:03:17.977Z,16
2019-03-16T06:03:58.364Z,16
2019-03-16T06:04:38.747Z,16
2019-03-16T06:05:19.153Z,12
2019-03-16T06:05:59.588Z,12
2019-03-16T06:06:39.969Z,20
2019-03-16T06:07:20.343Z,20
2019-03-16T06:08:00.730Z,24
2019-03-16T06:08:41.303Z,20
2019-03-16T06:09:21.694Z,20
2019-03-16T06:10:02.122Z,20
2019-03-16T06:10:42.521Z,24
2019-03-16T06:11:22.882Z,28
2019-03-16T06:12:03.291Z,24
2019-03-16T06:12:46.398Z,24
2019-03-16T06:13:24.121Z,28
2019-03-16T06:14:04.568Z,32
2019-03-16T06:14:45.582Z,24
2019-03-16T06:15:26.166Z,24
2019-03-16T06:16:10.400Z,24
2019-03-16T06:16:50.836Z,28
2019-03-16T06:17:31.202Z,32
2019-03-16T06:18:13.146Z,32
2019-03-16T06:18:51.980Z,28
2019-03-16T06:19:32.316Z,28
2019-03-16T06:20:12.749Z,28
2019-03-16T06:20:53.518Z,32
2019-03-16T06:21:33.903Z,32
2019-03-16T06:22:14.345Z,36
2019-03-16T06:22:58.837Z,36
2019-03-16T06:23:40.201Z,32
2019-03-16T06:24:21.251Z,32
2019-03-16T06:25:04.383Z,44
2019-03-16T06:25:46.568Z,40
2019-03-16T06:26:29.113Z,44
2019-03-16T06:27:10.589Z,44
2019-03-16T06:27:51.657Z,48
2019-03-16T06:28:34.629Z,52
2019-03-16T06:29:15.233Z,64
2019-03-16T06:29:55.658Z,68
2019-03-16T06:30:38.751Z,60
2019-03-16T06:31:20.999Z,60
2019-03-16T06:32:01.479Z,80
2019-03-16T06:32:41.810Z,64
2019-03-16T06:33:22.393Z,60
2019-03-16T06:34:03.806Z,56
2019-03-16T06:34:44.256Z,60
2019-03-16T06:35:29.023Z,64
2019-03-16T06:36:07.693Z,68
2019-03-16T06:36:48.221Z,72
2019-03-16T06:37:29.647Z,68
2019-03-16T06:38:10.004Z,72
2019-03-16T06:38:51.189Z,76
2019-03-16T06:39:32.147Z,80
2019-03-16T06:40:12.108Z,88
2019-03-16T06:40:53.304Z,116
2019-03-16T06:41:33.774Z,120
2019-03-16T06:42:14.223Z,132
2019-03-16T06:42:56.245Z,128
2019-03-16T06:43:45.593Z,132
2019-03-16T06:44:25.931Z,112
2019-03-16T06:45:08.005Z,116
2019-03-16T06:45:48.399Z,120
2019-03-16T06:46:28.800Z,164
2019-03-16T06:47:09.288Z,184
2019-03-16T06:47:54.542Z,176
2019-03-16T06:48:31.885Z,196
2019-03-16T06:49:12.546Z,188
2019-03-16T06:49:52.714Z,188
2019-03-16T06:50:36.755Z,156
2019-03-16T06:51:17.171Z,148
2019-03-16T06:51:57.811Z,140
2019-03-16T06:52:38.193Z,132
2019-03-16T06:53:20.349Z,120
2019-03-16T06:54:00.770Z,116
2019-03-16T06:54:42.197Z,112
2019-03-16T06:55:22.429Z,120
2019-03-16T06:56:02.801Z,128
2019-03-16T06:56:43.527Z,156
2019-03-16T06:57:24.439Z,192
2019-03-16T06:58:04.482Z,208
2019-03-16T06:58:45.065Z,196
2019-03-16T06:59:25.503Z,212
2019-03-16T07:00:06.292Z,300
2019-03-16T07:00:46.650Z,340
2019-03-16T07:01:27.068Z,364
2019-03-16T07:02:07.525Z,404
2019-03-16T07:02:47.882Z,444
2019-03-16T07:03:31.785Z,432
2019-03-16T07:04:12.160Z,380
2019-03-16T07:04:52.662Z,276
2019-03-16T07:05:37.949Z,312
2019-03-16T07:06:13.884Z,292
2019-03-16T07:06:54.557Z,260
2019-03-16T07:07:34.969Z,260
2019-03-16T07:08:15.400Z,288
2019-03-16T07:08:56.004Z,288
2019-03-16T07:09:36.767Z,312
2019-03-16T07:10:19.093Z,332
2019-03-16T07:11:01.289Z,352
2019-03-16T07:11:45.228Z,388
2019-03-16T07:12:30.991Z,368
2019-03-16T07:13:11.380Z,344
2019-03-16T07:13:55.405Z,324
2019-03-16T07:14:36.486Z,304
2019-03-16T07:15:17.289Z,312
2019-03-16T07:16:01.219Z,296
2019-03-16T07:16:41.827Z,284
2019-03-16T07:17:22.217Z,200
2019-03-16T07:18:02.657Z,148
2019-03-16T07:18:57.984Z,116
2019-03-16T07:19:27.295Z,108
2019-03-16T07:20:07.685Z,100
2019-03-16T07:20:47.998Z,100
2019-03-16T07:21:28.871Z,120
2019-03-16T07:22:09.887Z,120
2019-03-16T07:22:50.781Z,120
2019-03-16T07:23:31.312Z,156
2019-03-16T07:24:13.557Z,200
2019-03-16T07:24:53.972Z,244
2019-03-16T07:25:34.280Z,244
2019-03-16T07:26:19.559Z,236
2019-03-16T07:27:00.372Z,236
2019-03-16T07:27:42.572Z,272
2019-03-16T07:28:23.006Z,244
2019-03-16T07:29:06.841Z,252
2019-03-16T07:29:48.212Z,268
2019-03-16T07:30:30.440Z,296
2019-03-16T07:31:10.970Z,288
2019-03-16T07:31:51.293Z,264
2019-03-16T07:32:35.925Z,236
2019-03-16T07:33:17.385Z,260
2019-03-16T07:33:57.822Z,276
2019-03-16T07:34:38.351Z,256
2019-03-16T07:35:20.033Z,252
2019-03-16T07:36:00.455Z,264
2019-03-16T07:36:43.748Z,276
2019-03-16T07:37:26.052Z,348
2019-03-16T07:38:06.653Z,368
2019-03-16T07:38:47.058Z,328
2019-03-16T07:39:27.448Z,308
2019-03-16T07:40:09.910Z,272
2019-03-16T07:40:50.236Z,268
2019-03-16T07:41:31.732Z,260
2019-03-16T07:42:17.235Z,228
2019-03-16T07:42:57.633Z,176
2019-03-16T07:43:39.849Z,160
2019-03-16T07:44:20.349Z,132
2019-03-16T07:45:07.819Z,136
2019-03-16T07:45:42.919Z,132
2019-03-16T07:46:23.309Z,136
2019-03-16T07:47:05.277Z,180
2019-03-16T07:47:45.682Z,188
2019-03-16T07:48:26.330Z,176
2019-03-16T07:49:07.352Z,204
2019-03-16T07:49:53.609Z,240
2019-03-16T07:50:33.901Z,324
2019-03-16T07:51:14.375Z,300
2019-03-16T07:51:55.165Z,364
2019-03-16T07:52:35.547Z,388
2019-03-16T07:53:17.513Z,436
2019-03-16T07:53:59.155Z,384
2019-03-16T07:54:39.615Z,364
2019-03-16T07:55:19.954Z,388
2019-03-16T07:56:02.250Z,440
2019-03-16T07:56:46.282Z,372
2019-03-16T07:57:39.202Z,276
2019-03-16T07:58:07.284Z,252
2019-03-16T07:58:47.674Z,256
2019-03-16T07:59:28.048Z,240
2019-03-16T08:00:08.434Z,284
2019-03-16T08:00:50.410Z,256
2019-03-16T08:01:31.849Z,232
2019-03-16T08:02:12.761Z,264
2019-03-16T08:02:52.851Z,240
2019-03-16T08:03:33.307Z,224
2019-03-16T08:04:13.750Z,236
2019-03-16T08:04:54.318Z,248
2019-03-16T08:05:34.471Z,240
2019-03-16T08:06:15.199Z,288
2019-03-16T08:06:56.106Z,380
2019-03-16T08:07:36.542Z,328
2019-03-16T08:08:18.935Z,340
2019-03-16T08:09:00.920Z,400
2019-03-16T08:09:43.975Z,356
2019-03-16T08:10:24.647Z,364
2019-03-16T08:11:06.001Z,296
2019-03-16T08:11:49.941Z,320
2019-03-16T08:12:32.479Z,300
2019-03-16T08:13:12.271Z,304
2019-03-16T08:13:54.600Z,364
2019-03-16T08:14:34.774Z,404
2019-03-16T08:15:15.407Z,416
2019-03-16T08:15:55.781Z,380
2019-03-16T08:16:38.903Z,332
2019-03-16T08:17:21.223Z,384
2019-03-16T08:18:01.493Z,360
2019-03-16T08:18:41.848Z,256
2019-03-16T08:19:22.327Z,264
2019-03-16T08:20:04.546Z,368
2019-03-16T08:20:44.917Z,336
2019-03-16T08:21:28.175Z,272
2019-03-16T08:22:09.076Z,260
2019-03-16T08:22:49.462Z,324
2019-03-16T08:23:33.431Z,384
2019-03-16T08:24:15.327Z,340
2019-03-16T08:24:55.758Z,356
2019-03-16T08:25:37.505Z,372
2019-03-16T08:26:21.771Z,400
2019-03-16T08:27:07.210Z,436
2019-03-16T08:27:53.850Z,380
2019-03-16T08:28:24.812Z,352
2019-03-16T08:29:05.413Z,356
2019-03-16T08:29:45.738Z,464
2019-03-16T08:30:28.119Z,448
2019-03-16T08:31:08.758Z,328
2019-03-16T08:31:50.269Z,272
2019-03-16T08:32:31.432Z,208
2019-03-16T08:33:12.038Z,220
2019-03-16T08:33:55.260Z,224
2019-03-16T08:34:35.798Z,176
2019-03-16T08:35:17.957Z,164
2019-03-16T08:35:59.047Z,148
2019-03-16T08:36:41.189Z,200
2019-03-16T08:37:21.590Z,168
2019-03-16T08:38:02.948Z,144
2019-03-16T08:38:47.114Z,184
2019-03-16T08:39:28.942Z,308
2019-03-16T08:40:10.613Z,352
2019-03-16T08:40:51.834Z,268
2019-03-16T08:41:33.776Z,212
2019-03-16T08:42:19.013Z,220
2019-03-16T08:42:59.678Z,272
2019-03-16T08:43:41.734Z,328
2019-03-16T08:44:22.584Z,344
2019-03-16T08:45:02.685Z,376
2019-03-16T08:45:43.069Z,572
2019-03-16T08:46:23.441Z,616
2019-03-16T08:47:04.888Z,592
2019-03-16T08:47:45.260Z,452
2019-03-16T08:48:25.623Z,412
2019-03-16T08:49:06.074Z,380
2019-03-16T08:49:46.647Z,412
2019-03-16T08:50:29.163Z,556
2019-03-16T08:51:09.641Z,632
2019-03-16T08:51:50.971Z,572
2019-03-16T08:52:31.191Z,540
2019-03-16T08:53:11.960Z,568
2019-03-16T08:53:52.340Z,560
2019-03-16T08:54:33.710Z,544
2019-03-16T08:55:17.439Z,468
2019-03-16T08:55:59.356Z,544
2019-03-16T08:56:39.895Z,568
2019-03-16T08:57:20.229Z,672
2019-03-16T08:58:05.813Z,632
2019-03-16T08:58:43.484Z,476
2019-03-16T08:59:24.513Z,440
2019-03-16T09:00:04.165Z,376
2019-03-16T09:00:46.343Z,428
2019-03-16T09:01:26.790Z,492
2019-03-16T09:02:07.206Z,460
2019-03-16T09:02:47.599Z,460
2019-03-16T09:03:28.273Z,500
2019-03-16T09:04:09.441Z,504
2019-03-16T09:04:49.988Z,508
2019-03-16T09:05:31.059Z,524
2019-03-16T09:06:12.914Z,508
2019-03-16T09:06:53.289Z,492
2019-03-16T09:07:33.947Z,464
2019-03-16T09:08:14.414Z,484
2019-03-16T09:08:55.379Z,424
2019-03-16T09:09:36.889Z,408
2019-03-16T09:10:20.065Z,412
2019-03-16T09:11:01.189Z,404
2019-03-16T09:11:45.076Z,444
2019-03-16T09:15:31.926Z,560
2019-03-16T09:16:12.333Z,528
2019-03-16T09:16:52.870Z,492
2019-03-16T09:17:34.286Z,452
2019-03-16T09:18:15.034Z,420
2019-03-16T09:18:55.569Z,412
2019-03-16T09:19:37.237Z,428
2019-03-16T09:20:17.604Z,472
2019-03-16T09:20:58.055Z,732
2019-03-16T09:21:38.314Z,972
2019-03-16T09:22:18.769Z,844
2019-03-16T09:22:59.164Z,684
2019-03-16T09:23:41.105Z,628
2019-03-16T09:24:21.512Z,580
2019-03-16T09:25:01.874Z,596
2019-03-16T09:25:44.453Z,536
2019-03-16T09:26:25.642Z,520
2019-03-16T09:27:06.139Z,596
2019-03-16T09:27:46.509Z,688
2019-03-16T09:28:28.949Z,988
2019-03-16T09:29:14.652Z,1176
2019-03-16T09:29:51.443Z,1748
2019-03-16T09:30:34.606Z,1468
2019-03-16T09:31:15.340Z,1280
2019-03-16T09:31:57.386Z,1612
2019-03-16T09:32:43.492Z,2028
2019-03-16T09:33:24.108Z,2404
2019-03-16T09:34:05.307Z,2392
2019-03-16T09:39:38.000Z,1376
2019-03-16T09:40:20.602Z,1104
2019-03-16T09:41:01.369Z,960
2019-03-16T09:41:41.798Z,968
2019-03-16T09:42:27.546Z,984
2019-03-16T09:43:07.940Z,1132
2019-03-16T09:43:48.473Z,1356
2019-03-16T09:44:30.888Z,1080
2019-03-16T09:45:12.031Z,1012
2019-03-16T09:45:52.395Z,992
2019-03-16T09:46:33.043Z,956
2019-03-16T09:47:13.351Z,1040
2019-03-16T09:47:53.913Z,1332
2019-03-16T09:48:34.268Z,1472
2019-03-16T09:49:16.308Z,1220
2019-03-16T09:49:57.744Z,1128
2019-03-16T09:50:38.073Z,1068
2019-03-16T09:51:18.477Z,1428
2019-03-16T09:51:59.012Z,1304
2019-03-16T09:52:46.625Z,1484
2019-03-16T09:53:36.754Z,1748
2019-03-16T09:54:17.808Z,1672
2019-03-16T09:55:00.610Z,1256
2019-03-16T09:55:40.399Z,1072
2019-03-16T09:56:23.834Z,1308
2019-03-16T09:57:12.744Z,1480
2019-03-16T09:57:53.270Z,1668
2019-03-16T09:58:34.075Z,1668
2019-03-16T09:59:15.489Z,1948
2019-03-16T09:59:56.766Z,2252
2019-03-16T10:00:38.929Z,2084
2019-03-16T10:01:21.552Z,2004
2019-03-16T10:02:04.540Z,2012
2019-03-16T10:02:44.993Z,2248
2019-03-16T10:03:25.516Z,2360
2019-03-16T10:04:07.962Z,2116
2019-03-16T10:04:49.895Z,1764
2019-03-16T10:05:30.389Z,1512
2019-03-16T10:06:10.814Z,1464
2019-03-16T10:06:51.228Z,1480
2019-03-16T10:07:31.651Z,1588
2019-03-16T10:08:12.098Z,1640
2019-03-16T10:08:52.593Z,1372
2019-03-16T10:09:33.979Z,1252
2019-03-16T10:10:14.338Z,1232
2019-03-16T10:10:54.624Z,1472
2019-03-16T10:11:37.088Z,1492
2019-03-16T10:12:18.495Z,1740
2019-03-16T10:12:58.816Z,2148
2019-03-16T10:13:39.558Z,2320
2019-03-16T10:14:20.432Z,2004
2019-03-16T10:15:00.970Z,1572
2019-03-16T10:15:42.582Z,1252
2019-03-16T10:16:24.259Z,1240
2019-03-16T10:17:08.638Z,1300
2019-03-16T10:17:49.185Z,1532
2019-03-16T10:18:33.394Z,1556
2019-03-16T10:19:14.075Z,1508
2019-03-16T10:19:56.349Z,1300
2019-03-16T10:20:38.777Z,1124
2019-03-16T10:21:21.904Z,1000
2019-03-16T10:22:03.266Z,868
2019-03-16T10:22:45.743Z,968
2019-03-16T10:23:26.025Z,856
2019-03-16T10:24:08.611Z,820
2019-03-16T10:24:49.260Z,636
2019-03-16T10:25:30.462Z,572
2019-03-16T10:26:10.915Z,596
2019-03-16T10:26:53.925Z,556
2019-03-16T10:27:36.409Z,536
2019-03-16T10:28:16.671Z,500
2019-03-16T10:28:59.024Z,568
2019-03-16T11:15:05.767Z,1956
2019-03-16T11:15:52.676Z,1820
2019-03-16T11:16:36.768Z,1836
2019-03-16T11:17:20.235Z,1776
2019-03-16T11:18:00.664Z,1752
2019-03-16T11:18:41.170Z,1740
2019-03-16T11:19:21.739Z,1672
2019-03-16T11:20:02.449Z,1672
2019-03-16T11:20:43.083Z,1516
2019-03-16T11:21:24.968Z,1292
2019-03-16T11:22:06.454Z,1076
2019-03-16T11:22:46.765Z,944
2019-03-16T11:23:28.864Z,936
2019-03-16T11:24:09.271Z,904
2019-03-16T11:24:51.635Z,960
2019-03-16T11:32:33.129Z,1124
2019-03-16T11:33:13.457Z,1196
2019-03-16T11:33:55.409Z,1232
2019-03-16T11:34:35.839Z,1180
2019-03-16T11:35:17.952Z,1064
2019-03-16T11:35:58.340Z,984
2019-03-16T11:36:40.457Z,948
2019-03-16T11:37:21.044Z,880
2019-03-16T11:38:02.199Z,800
2019-03-16T11:38:42.846Z,796
2019-03-16T11:39:24.942Z,912
2019-03-16T11:40:05.572Z,824
2019-03-16T11:40:47.348Z,860
2019-03-16T11:41:29.614Z,1056
2019-03-16T11:42:10.799Z,1272
2019-03-16T11:42:53.055Z,1328
2019-03-16T11:43:33.514Z,1556
2019-03-16T11:44:15.511Z,1708
2019-03-16T11:44:59.572Z,1808
2019-03-16T11:45:41.452Z,1860
2019-03-16T11:46:21.706Z,2200
2019-03-16T11:47:02.430Z,2204
2019-03-16T11:47:44.455Z,1852
2019-03-16T11:48:25.905Z,1856
2019-03-16T11:49:06.314Z,1836
2019-03-16T11:49:49.470Z,1748
2019-03-16T11:50:31.783Z,1788
2019-03-16T11:51:13.004Z,1644
2019-03-16T11:52:03.678Z,1508
2019-03-16T11:52:44.649Z,1352
2019-03-16T11:53:25.116Z,1172
2019-03-16T11:54:05.526Z,1044
2019-03-16T11:54:46.002Z,924
2019-03-16T11:55:28.132Z,800
2019-03-16T11:56:17.290Z,724
2019-03-16T11:56:50.980Z,692
2019-03-16T11:57:31.329Z,684
2019-03-16T11:58:13.558Z,644
2019-03-16T11:58:55.262Z,616
2019-03-16T11:59:40.836Z,568
2019-03-16T12:00:23.449Z,548
2019-03-16T12:01:08.274Z,552
2019-03-16T12:01:48.515Z,552
2019-03-16T12:02:30.626Z,636
2019-03-16T12:03:11.026Z,688
2019-03-16T12:03:51.422Z,680
2019-03-16T12:04:33.010Z,728
2019-03-16T12:05:13.439Z,600
2019-03-16T12:05:55.096Z,632
2019-03-16T12:06:35.605Z,684
2019-03-16T12:07:16.049Z,796
2019-03-16T12:07:58.121Z,964
2019-03-16T12:08:39.737Z,928
2019-03-16T12:09:19.188Z,976
2019-03-16T12:09:59.715Z,1040
2019-03-16T12:10:40.350Z,988
2019-03-16T12:11:25.994Z,956
2019-03-16T12:12:12.054Z,792
2019-03-16T12:12:52.453Z,696
2019-03-16T12:13:32.842Z,600
2019-03-16T12:14:13.356Z,500
2019-03-16T12:14:56.498Z,508
2019-03-16T12:17:33.858Z,1388
2019-03-16T12:18:15.011Z,1688
2019-03-16T12:18:56.018Z,1548
2019-03-16T12:19:38.365Z,1040
2019-03-16T12:20:23.431Z,884
2019-03-16T12:21:03.853Z,1156
2019-03-16T12:21:47.295Z,1452
2019-03-16T12:22:27.634Z,1624
2019-03-16T12:23:08.063Z,1704
2019-03-16T12:23:49.143Z,1572
2019-03-16T12:24:31.449Z,1656
2019-03-16T12:25:11.763Z,1624
2019-03-16T12:25:52.237Z,1644
2019-03-16T12:26:33.663Z,1800
2019-03-16T12:27:14.068Z,1744
2019-03-16T12:27:58.152Z,1576
2019-03-16T12:28:38.908Z,1476
2019-03-16T12:29:33.338Z,1188
2019-03-16T12:30:05.451Z,1024
2019-03-16T12:30:45.640Z,944
2019-03-16T12:31:29.027Z,1248
2019-03-16T12:32:09.757Z,1224
2019-03-16T12:32:52.065Z,1072
2019-03-16T12:33:34.248Z,908
2019-03-16T12:34:15.577Z,836
2019-03-16T12:34:56.657Z,716
2019-03-16T12:35:37.061Z,640
2019-03-16T12:36:18.773Z,604
2019-03-16T12:37:00.505Z,596
2019-03-16T12:37:40.699Z,644
2019-03-16T12:38:23.673Z,760
2019-03-16T12:39:05.722Z,700
2019-03-16T12:39:48.803Z,672
2019-03-16T12:40:32.077Z,820
2019-03-16T12:41:15.191Z,800
2019-03-16T12:41:57.117Z,840
2019-03-16T12:42:37.532Z,864
2019-03-16T12:43:18.146Z,788
2019-03-16T12:44:02.698Z,748
2019-03-16T12:44:47.029Z,776
2019-03-16T12:45:27.524Z,708
2019-03-16T12:46:09.777Z,600
2019-03-16T12:46:52.338Z,556
2019-03-16T12:47:35.589Z,524
2019-03-16T12:48:16.094Z,492
2019-03-16T12:48:58.414Z,488
2019-03-16T12:49:40.306Z,500
2019-03-16T12:50:21.914Z,552
2019-03-16T12:51:07.069Z,592
2019-03-16T12:51:48.322Z,640
2019-03-16T12:52:31.036Z,688
2019-03-16T12:53:15.672Z,648
2019-03-16T12:53:56.234Z,616
2019-03-16T12:54:38.262Z,620
2019-03-16T12:55:26.728Z,636